Time;durP1;ratioP1;P1;durP2;ratioP2;P2;SDS_P1;SDS_P2;PMS_P1;PMS_P2;Temp;Humidity;BMP_temperature;BMP_pressure;BME280_temperature;BME280_humidity;BME280_pressure;Samples;Min_cycle;Max_cycle;Signal;HPM_P1;HPM_P2
2022/03/30 00:02:21;;;;;;;88.97;35.60;;;;;;;2.15;100.00;95616.94;10391176;23;20825;-55
2022/03/30 00:07:21;;;;;;;107.37;38.83;;;;;;;2.14;100.00;95604.97;10369758;28;20690;-56
2022/03/30 00:12:22;;;;;;;107.37;43.23;;;;;;;2.03;100.00;95616.22;10369791;28;20734;-55
2022/03/30 00:17:22;;;;;;;114.33;44.07;;;;;;;1.92;100.00;95611.16;10369854;28;20766;-55
2022/03/30 00:22:22;;;;;;;102.07;41.13;;;;;;;1.97;100.00;95603.81;10369125;28;20744;-55
2022/03/30 00:27:23;;;;;;;103.17;38.87;;;;;;;1.95;100.00;95595.41;10369801;28;20667;-56
2022/03/30 00:32:23;;;;;;;100.27;39.40;;;;;;;1.89;100.00;95599.31;10351749;28;20269;-58
2022/03/30 00:37:24;;;;;;;103.77;42.73;;;;;;;1.84;100.00;95613.56;10369894;28;20208;-53
2022/03/30 00:42:24;;;;;;;87.60;31.77;;;;;;;1.83;100.00;95604.19;10369214;28;20218;-53
2022/03/30 00:47:26;;;;;;;101.13;39.07;;;;;;;1.78;100.00;95604.59;10369430;28;20207;-53
2022/03/30 00:52:26;;;;;;;96.90;36.60;;;;;;;1.73;100.00;95597.22;10369062;28;20340;-55
2022/03/30 00:57:28;;;;;;;113.70;44.07;;;;;;;1.68;100.00;95594.19;10368905;28;20272;-53
2022/03/30 01:02:30;;;;;;;80.57;32.83;;;;;;;1.69;100.00;95590.69;10368387;28;20237;-53
2022/03/30 01:07:31;;;;;;;77.87;30.90;;;;;;;1.69;100.00;95590.69;10371364;28;20192;-53
2022/03/30 01:12:32;;;;;;;101.77;37.77;;;;;;;1.71;100.00;95578.44;10376119;28;20229;-54
2022/03/30 01:17:33;;;;;;;98.90;40.43;;;;;;;1.75;100.00;95589.34;10376099;28;21027;-52
2022/03/30 01:22:33;;;;;;;103.20;38.73;;;;;;;1.75;100.00;95576.44;10375083;28;20201;-54
2022/03/30 01:27:34;;;;;;;100.40;36.03;;;;;;;1.72;100.00;95572.34;10375930;28;20199;-54
2022/03/30 01:32:36;;;;;;;101.43;39.70;;;;;;;1.70;100.00;95571.66;10374981;28;20268;-53
2022/03/30 01:37:37;;;;;;;86.27;34.37;;;;;;;1.75;100.00;95564.34;10375525;28;20268;-53
2022/03/30 01:42:38;;;;;;;87.43;36.03;;;;;;;1.78;100.00;95558.09;10374885;28;20295;-53
2022/03/30 01:47:41;;;;;;;102.37;43.73;;;;;;;1.67;100.00;95556.44;10374858;28;20611;-54
2022/03/30 01:52:41;;;;;;;102.03;39.53;;;;;;;1.77;100.00;95541.78;10374611;28;20603;-54
2022/03/30 01:57:42;;;;;;;102.10;38.80;;;;;;;1.66;100.00;95533.34;10374274;28;20203;-55
2022/03/30 02:02:43;;;;;;;89.53;38.17;;;;;;;1.55;100.00;95526.50;10374311;28;20243;-55
2022/03/30 02:07:43;;;;;;;83.03;33.13;;;;;;;1.46;100.00;95522.94;10373946;28;20201;-55
2022/03/30 02:12:43;;;;;;;106.10;41.77;;;;;;;1.41;100.00;95522.53;10373752;28;20223;-53
2022/03/30 02:17:44;;;;;;;99.60;38.83;;;;;;;1.31;100.00;95508.75;10372881;28;20274;-54
2022/03/30 02:22:44;;;;;;;94.20;37.53;;;;;;;1.30;100.00;95507.09;10372743;28;20236;-54
2022/03/30 02:27:44;;;;;;;94.57;38.10;;;;;;;1.19;100.00;95490.75;10373656;28;20238;-53
2022/03/30 02:32:45;;;;;;;87.30;34.37;;;;;;;1.20;100.00;95492.41;10372700;28;20217;-53
2022/03/30 02:37:45;;;;;;;101.43;41.63;;;;;;;1.06;100.00;95493.56;10373138;28;20633;-53
2022/03/30 02:42:45;;;;;;;102.10;42.37;;;;;;;1.04;100.00;95489.47;10372593;28;20275;-54
2022/03/30 02:53:04;;;;;;;98.80;38.30;;;;;;;1.09;100.00;95477.03;10372162;28;20318;-55
2022/03/30 02:58:05;;;;;;;79.77;35.40;;;;;;;1.12;100.00;95469.03;10372098;28;20274;-53
2022/03/30 03:03:07;;;;;;;84.53;33.60;;;;;;;1.13;100.00;95472.41;10371426;28;20240;-54
2022/03/30 03:08:10;;;;;;;83.00;33.63;;;;;;;1.19;100.00;95462.38;10371864;28;20272;-53
2022/03/30 03:13:13;;;;;;;92.03;36.73;;;;;;;1.08;100.00;95467.63;10371389;28;20229;-55
2022/03/30 03:18:14;;;;;;;97.27;38.57;;;;;;;0.98;100.00;95466.78;10371531;28;20215;-53
2022/03/30 03:23:15;;;;;;;108.87;44.33;;;;;;;0.95;100.00;95469.59;10370817;28;20585;-55
2022/03/30 03:28:16;;;;;;;107.90;40.20;;;;;;;1.04;100.00;95464.50;10371175;28;20196;-54
2022/03/30 03:33:17;;;;;;;98.53;39.77;;;;;;;1.00;100.00;95459.75;10370637;28;20561;-53
2022/03/30 03:38:18;;;;;;;91.40;38.57;;;;;;;1.06;100.00;95464.38;10370788;28;20199;-56
2022/03/30 03:43:18;;;;;;;81.63;32.73;;;;;;;1.09;100.00;95455.56;10370708;28;20217;-53
2022/03/30 03:48:19;;;;;;;83.67;34.83;;;;;;;1.09;100.00;95468.44;10370409;28;20563;-53
2022/03/30 03:53:19;;;;;;;97.33;38.33;;;;;;;1.09;100.00;95464.13;10370009;28;20701;-53
2022/03/30 03:58:19;;;;;;;82.77;31.73;;;;;;;1.17;100.00;95453.16;10369851;28;20847;-53
2022/03/30 04:03:20;;;;;;;74.60;30.37;;;;;;;1.14;100.00;95454.22;10369347;28;20598;-53
2022/03/30 04:08:20;;;;;;;89.23;35.60;;;;;;;1.19;100.00;95453.84;10369753;28;20210;-53
2022/03/30 04:13:21;;;;;;;92.03;35.57;;;;;;;1.27;100.00;95455.78;10369471;28;20219;-53
2022/03/30 04:18:23;;;;;;;83.63;31.63;;;;;;;1.30;100.00;95456.31;10370388;28;20203;-53
2022/03/30 04:23:23;;;;;;;85.83;38.10;;;;;;;1.24;100.00;95454.25;10369205;28;20212;-54
2022/03/30 04:28:23;;;;;;;84.93;35.03;;;;;;;1.30;100.00;95458.91;10369910;28;20238;-53
2022/03/30 04:33:24;;;;;;;64.30;27.23;;;;;;;1.38;100.00;95458.28;10369592;28;20221;-54
2022/03/30 04:38:24;;;;;;;79.17;35.47;;;;;;;1.43;100.00;95451.75;10369557;28;20673;-54
2022/03/30 04:43:25;;;;;;;74.47;32.47;;;;;;;1.49;100.00;95452.19;10374075;28;20704;-54
2022/03/30 04:48:25;;;;;;;87.90;34.07;;;;;;;1.50;100.00;95446.06;10377133;28;20712;-53
2022/03/30 04:53:25;;;;;;;88.77;36.83;;;;;;;1.42;100.00;95442.41;10377247;28;20230;-53
2022/03/30 04:58:26;;;;;;;103.97;47.17;;;;;;;1.48;100.00;95441.03;10376838;28;20307;-57
2022/03/30 05:03:26;;;;;;;88.83;36.70;;;;;;;1.60;100.00;95441.75;10376480;28;20248;-54
2022/03/30 05:08:27;;;;;;;86.43;37.17;;;;;;;1.70;100.00;95444.34;10376815;28;20287;-54
2022/03/30 05:13:27;;;;;;;81.73;34.97;;;;;;;1.68;100.00;95447.06;10375909;28;20248;-53
2022/03/30 05:18:27;;;;;;;79.53;32.13;;;;;;;1.78;100.00;95444.50;10376435;28;20201;-54
2022/03/30 05:23:28;;;;;;;78.43;34.40;;;;;;;1.72;100.00;95448.44;10375241;28;20355;-53
2022/03/30 05:28:28;;;;;;;90.13;36.20;;;;;;;1.72;100.00;95442.47;10375923;28;20200;-55
2022/03/30 05:33:28;;;;;;;78.27;35.07;;;;;;;1.66;100.00;95436.06;10375404;28;20260;-56
2022/03/30 05:38:29;;;;;;;90.27;35.23;;;;;;;1.80;100.00;95436.63;10375329;28;20224;-54
2022/03/30 05:43:29;;;;;;;74.77;28.87;;;;;;;1.77;100.00;95429.94;10375242;28;20224;-55
2022/03/30 05:48:29;;;;;;;92.70;34.20;;;;;;;1.78;100.00;95434.19;10374966;28;20193;-54
2022/03/30 05:53:31;;;;;;;97.40;37.40;;;;;;;1.82;100.00;95430.34;10373566;28;20237;-53
2022/03/30 05:58:31;;;;;;;107.93;39.37;;;;;;;1.81;100.00;95426.16;10374675;28;20198;-53
2022/03/30 06:03:44;;;;;;;89.90;35.97;;;;;;;1.96;100.00;95413.66;10418205;22;20256;-51
2022/03/30 06:08:44;;;;;;;88.13;37.07;;;;;;;2.11;100.00;95420.06;10414994;28;20201;-57
2022/03/30 06:13:45;;;;;;;91.23;36.97;;;;;;;2.20;100.00;95425.34;10414294;28;20686;-57
2022/03/30 06:18:45;;;;;;;98.57;38.33;;;;;;;2.32;100.00;95425.06;10414891;28;20578;-56
2022/03/30 06:23:46;;;;;;;102.93;40.00;;;;;;;2.48;100.00;95421.94;10413893;28;20212;-55
2022/03/30 06:28:47;;;;;;;106.40;42.00;;;;;;;2.55;100.00;95421.38;10414037;28;20211;-51
2022/03/30 06:33:48;;;;;;;97.97;39.37;;;;;;;2.52;100.00;95417.28;10414142;28;20262;-55
2022/03/30 06:38:49;;;;;;;104.00;40.83;;;;;;;2.62;100.00;95412.09;10413647;28;20195;-50
2022/03/30 06:43:50;;;;;;;107.67;40.93;;;;;;;2.55;100.00;95408.47;10413806;28;20208;-50
2022/03/30 06:48:51;;;;;;;93.20;38.03;;;;;;;3.02;100.00;95398.13;10413412;28;20189;-55
2022/03/30 06:53:51;;;;;;;87.27;38.43;;;;;;;3.17;100.00;95396.69;10413178;28;20221;-53
2022/03/30 06:58:52;;;;;;;88.13;38.37;;;;;;;3.29;100.00;95401.66;10413073;28;20744;-51
2022/03/30 07:03:52;;;;;;;90.53;40.07;;;;;;;3.35;100.00;95398.50;10404128;28;20237;-53
2022/03/30 07:14:11;;;;;;;96.03;38.60;;;;;;;3.56;100.00;95406.03;10410112;28;20224;-55
2022/03/30 07:19:12;;;;;;;96.47;38.67;;;;;;;3.63;100.00;95401.06;10409958;28;20193;-53
2022/03/30 07:24:12;;;;;;;93.87;39.37;;;;;;;3.61;100.00;95405.59;10409428;28;20302;-53
2022/03/30 07:29:12;;;;;;;84.20;37.83;;;;;;;3.47;100.00;95399.13;10399675;28;20188;-55
2022/03/30 07:34:13;;;;;;;86.90;38.77;;;;;;;3.44;100.00;95396.81;10380746;28;20227;-54
2022/03/30 07:39:14;;;;;;;90.27;38.20;;;;;;;3.55;100.00;95381.06;10406244;28;20203;-57
2022/03/30 07:44:14;;;;;;;98.10;40.10;;;;;;;3.61;100.00;95387.44;10405657;28;20212;-56
2022/03/30 07:49:16;;;;;;;91.57;38.73;;;;;;;3.71;100.00;95383.84;10405228;28;20188;-55
2022/03/30 07:54:16;;;;;;;90.97;38.77;;;;;;;3.75;100.00;95381.75;10404224;28;20722;-53
2022/03/30 07:59:17;;;;;;;95.30;38.87;;;;;;;3.78;100.00;95371.09;10406634;28;20283;-57
2022/03/30 08:04:17;;;;;;;92.60;39.77;;;;;;;3.76;100.00;95380.81;10404904;28;20224;-54
2022/03/30 08:09:17;;;;;;;82.77;37.73;;;;;;;4.00;100.00;95390.59;10396652;28;20315;-55
2022/03/30 08:14:18;;;;;;;84.83;38.07;;;;;;;4.08;100.00;95387.25;10396295;28;20228;-54
2022/03/30 08:19:19;;;;;;;97.30;41.13;;;;;;;4.11;100.00;95384.38;10412449;28;20194;-57
2022/03/30 08:24:20;;;;;;;95.67;40.07;;;;;;;4.10;100.00;95377.53;10413694;28;20270;-58
2022/03/30 08:29:21;;;;;;;93.53;38.57;;;;;;;4.24;100.00;95365.81;10413569;28;20181;-55
2022/03/30 08:34:21;;;;;;;87.87;37.20;;;;;;;4.46;100.00;95365.34;10414628;28;20224;-54
2022/03/30 08:39:21;;;;;;;100.53;39.33;;;;;;;4.54;100.00;95361.19;10412093;28;20250;-54
2022/03/30 08:44:22;;;;;;;96.77;40.90;;;;;;;4.62;100.00;95369.84;10393248;28;20217;-59
2022/03/30 08:49:22;;;;;;;91.07;39.83;;;;;;;4.78;100.00;95366.50;10412438;28;20230;-55
2022/03/30 08:54:23;;;;;;;97.93;42.37;;;;;;;4.79;100.00;95368.16;10399159;28;20236;-55
2022/03/30 08:59:23;;;;;;;78.53;37.77;;;;;;;4.89;100.00;95362.84;10374729;28;20667;-51
2022/03/30 09:04:25;;;;;;;82.30;37.47;;;;;;;4.83;100.00;95364.25;10407460;28;20236;-53
2022/03/30 09:09:31;;;;;;;82.20;38.30;;;;;;;4.83;100.00;95359.06;10406018;28;20204;-54
2022/03/30 09:14:34;;;;;;;83.53;37.97;;;;;;;4.79;100.00;95359.53;10411855;28;20726;-55
2022/03/30 09:19:36;;;;;;;93.17;39.80;;;;;;;4.50;100.00;95354.66;10411474;28;20185;-53
2022/03/30 09:24:38;;;;;;;88.83;39.03;;;;;;;4.46;100.00;95342.00;10409582;28;20261;-59
2022/03/30 09:29:39;;;;;;;93.47;40.73;;;;;;;4.57;100.00;95337.53;10389048;28;20197;-52
2022/03/30 09:34:51;;;;;;;96.43;41.83;;;;;;;4.57;100.00;95327.97;10385199;28;20299;-55
2022/03/30 09:39:51;;;;;;;110.77;43.67;;;;;;;4.61;100.00;95326.69;10411109;28;20813;-60
2022/03/30 09:44:55;;;;;;;93.30;40.60;;;;;;;4.79;100.00;95331.00;10410181;28;20222;-55
2022/03/30 09:49:57;;;;;;;77.27;35.43;;;;;;;4.68;100.00;95332.06;10410895;28;20216;-59
2022/03/30 09:54:59;;;;;;;74.10;35.43;;;;;;;4.43;100.00;95337.13;10410530;28;20618;-54
2022/03/30 10:00:03;;;;;;;84.20;36.87;;;;;;;4.49;100.00;95327.09;10409989;28;20200;-57
2022/03/30 10:05:11;;;;;;;79.67;34.70;;;;;;;4.36;100.00;95309.38;10410170;28;20275;-54
2022/03/30 10:10:14;;;;;;;75.27;35.40;;;;;;;4.34;100.00;95296.56;10410346;28;20197;-58
2022/03/30 10:15:14;;;;;;;90.87;39.73;;;;;;;4.48;100.00;95295.19;10408157;28;20635;-57
2022/03/30 10:20:14;;;;;;;94.13;38.83;;;;;;;4.47;100.00;95293.53;10400228;28;20205;-55
2022/03/30 10:25:26;;;;;;;92.93;38.57;;;;;;;4.34;100.00;95290.56;10379486;28;20297;-59
2022/03/30 10:30:29;;;;;;;84.67;36.30;;;;;;;4.08;100.00;95289.59;10395171;28;20189;-58
2022/03/30 10:35:39;;;;;;;78.30;33.17;;;;;;;4.07;100.00;95285.38;10440945;28;20228;-55
2022/03/30 10:40:40;;;;;;;63.93;31.00;;;;;;;4.09;100.00;95265.31;10408531;28;20193;-53
2022/03/30 10:45:49;;;;;;;75.10;33.13;;;;;;;4.09;100.00;95261.91;10407733;28;20189;-54
2022/03/30 10:50:55;;;;;;;71.77;32.43;;;;;;;4.23;100.00;95263.94;10408211;28;20192;-51
2022/03/30 10:56:12;;;;;;;81.10;33.80;;;;;;;4.20;100.00;95266.03;10407037;28;20217;-54
2022/03/30 11:01:18;;;;;;;76.07;33.90;;;;;;;4.05;100.00;95260.56;10406791;28;20327;-56
2022/03/30 11:06:19;;;;;;;86.83;37.27;;;;;;;3.88;100.00;95267.44;10396989;28;20184;-52
2022/03/30 11:11:20;;;;;;;90.13;35.23;;;;;;;3.88;100.00;95267.44;10379674;28;21099;-52
2022/03/30 11:16:20;;;;;;;82.27;37.20;;;;;;;3.91;100.00;95260.16;10374621;28;20224;-54
2022/03/30 11:21:21;;;;;;;96.77;37.40;;;;;;;3.89;100.00;95258.66;10379150;28;20714;-53
2022/03/30 11:26:23;;;;;;;87.03;36.17;;;;;;;3.87;100.00;95247.66;10374657;28;20686;-55
2022/03/30 11:31:23;;;;;;;88.80;35.03;;;;;;;3.93;100.00;95240.09;10387635;28;20216;-51
2022/03/30 11:36:24;;;;;;;78.30;34.87;;;;;;;3.82;100.00;95240.34;10405269;28;20260;-53
2022/03/30 11:41:25;;;;;;;84.93;35.20;;;;;;;3.75;100.00;95229.78;10405637;28;20694;-55
2022/03/30 11:46:30;;;;;;;72.43;32.60;;;;;;;4.01;100.00;95223.81;10405688;28;20219;-52
2022/03/30 11:51:32;;;;;;;77.00;33.53;;;;;;;4.00;100.00;95221.38;10403470;28;20215;-51
2022/03/30 11:56:32;;;;;;;77.50;33.70;;;;;;;3.93;100.00;95215.97;10405481;28;20227;-50
2022/03/30 12:01:37;;;;;;;75.30;34.00;;;;;;;3.91;100.00;95213.53;10404916;28;20232;-53
2022/03/30 12:06:49;;;;;;;79.43;34.00;;;;;;;3.89;100.00;95212.03;10416752;22;20284;-54
2022/03/30 12:11:50;;;;;;;86.43;33.90;;;;;;;4.04;100.00;95197.59;10364919;28;20236;-54
2022/03/30 12:16:50;;;;;;;75.73;31.77;;;;;;;3.93;100.00;95196.03;10364383;28;20759;-56
2022/03/30 12:21:50;;;;;;;64.37;28.10;;;;;;;3.81;100.00;95194.66;10363502;28;20660;-57
2022/03/30 12:26:51;;;;;;;69.27;28.03;;;;;;;3.91;100.00;95189.41;10364642;28;20751;-55
2022/03/30 12:31:53;;;;;;;65.60;27.47;;;;;;;3.86;100.00;95191.63;10363444;28;20232;-58
2022/03/30 12:36:58;;;;;;;57.27;27.93;;;;;;;3.90;100.00;95195.53;10364636;28;20221;-59
2022/03/30 12:42:14;;;;;;;66.40;29.67;;;;;;;3.68;100.00;95189.09;10364055;28;20247;-55
2022/03/30 12:47:17;;;;;;;68.50;30.47;;;;;;;3.59;100.00;95198.56;10364138;28;20340;-56
2022/03/30 12:52:18;;;;;;;78.13;30.90;;;;;;;3.51;100.00;95193.34;10362233;28;20220;-58
2022/03/30 12:57:27;;;;;;;73.47;29.83;;;;;;;3.55;100.00;95187.72;10362460;28;20244;-57
2022/03/30 13:02:27;;;;;;;74.87;31.27;;;;;;;3.50;100.00;95189.94;10364053;28;20682;-58
2022/03/30 13:07:28;;;;;;;73.13;29.47;;;;;;;3.34;100.00;95184.66;10369128;28;20245;-56
2022/03/30 13:12:42;;;;;;;65.13;26.63;;;;;;;3.36;100.00;95175.75;10345055;28;20192;-59
2022/03/30 13:18:04;;;;;;;48.53;22.33;;;;;;;3.13;100.00;95172.81;10348733;28;20267;-55
2022/03/30 13:23:06;;;;;;;51.83;21.40;;;;;;;3.19;100.00;95174.81;10345269;28;20738;-58
2022/03/30 13:28:07;;;;;;;49.60;21.57;;;;;;;2.95;100.00;95161.66;10350575;28;20218;-59
2022/03/30 13:33:08;;;;;;;51.27;22.17;;;;;;;3.04;100.00;95155.59;10382068;28;20221;-56
2022/03/30 13:38:17;;;;;;;56.90;21.80;;;;;;;3.02;100.00;95150.56;10348287;28;20675;-59
2022/03/30 13:43:17;;;;;;;57.87;23.47;;;;;;;3.10;100.00;95154.19;10370178;28;20189;-55
2022/03/30 13:48:18;;;;;;;55.40;22.03;;;;;;;2.93;100.00;95150.66;10370283;28;20226;-59
2022/03/30 13:53:18;;;;;;;50.13;20.80;;;;;;;2.94;100.00;95147.09;10369673;28;20250;-60
2022/03/30 13:58:18;;;;;;;40.70;20.07;;;;;;;2.92;100.00;95149.03;10368616;28;20213;-58
2022/03/30 14:03:21;;;;;;;44.30;20.63;;;;;;;2.97;100.00;95139.03;10369753;28;20189;-61
2022/03/30 14:08:21;;;;;;;53.23;22.57;;;;;;;2.90;100.00;95141.41;10369070;28;20233;-59
2022/03/30 14:13:22;;;;;;;51.53;22.87;;;;;;;2.74;100.00;95136.91;10368492;28;20228;-57
2022/03/30 14:18:24;;;;;;;45.97;20.50;;;;;;;2.77;100.00;95141.78;10368662;28;20267;-60
2022/03/30 14:23:25;;;;;;;41.53;18.73;;;;;;;2.68;100.00;95134.91;10363240;28;20193;-58
2022/03/30 14:28:26;;;;;;;37.77;16.87;;;;;;;2.73;100.00;95132.69;10358186;28;21032;-57
2022/03/30 14:33:26;;;;;;;29.50;14.70;;;;;;;2.60;100.00;95132.22;10365995;28;20221;-56
2022/03/30 14:38:27;;;;;;;33.90;13.90;;;;;;;2.45;100.00;95137.91;10368406;28;20279;-56
2022/03/30 14:43:27;;;;;;;29.43;12.70;;;;;;;2.45;100.00;95132.75;10368159;28;20200;-54
2022/03/30 14:48:28;;;;;;;25.07;11.70;;;;;;;2.51;100.00;95131.31;10367832;28;20221;-57
2022/03/30 14:53:28;;;;;;;30.27;12.83;;;;;;;2.42;100.00;95137.38;10368286;28;20267;-58
2022/03/30 14:58:29;;;;;;;28.23;14.00;;;;;;;2.27;100.00;95126.72;10370920;28;20213;-61
2022/03/30 15:03:29;;;;;;;25.93;13.40;;;;;;;2.39;100.00;95128.16;10366079;28;20245;-61
2022/03/30 15:08:29;;;;;;;32.93;16.23;;;;;;;2.22;100.00;95119.41;10349229;28;20229;-61
2022/03/30 15:13:30;;;;;;;30.77;15.83;;;;;;;2.24;100.00;95117.50;10358227;28;20227;-59
2022/03/30 15:18:30;;;;;;;34.83;17.20;;;;;;;2.00;100.00;95117.22;10351471;28;20217;-59
2022/03/30 15:23:30;;;;;;;30.67;16.83;;;;;;;2.07;100.00;95123.44;10351814;28;20668;-61
2022/03/30 15:28:31;;;;;;;33.17;16.33;;;;;;;2.01;100.00;95122.22;10369497;28;20733;-61
2022/03/30 15:33:34;;;;;;;29.47;14.67;;;;;;;2.06;100.00;95122.59;10368514;28;20221;-59
2022/03/30 15:38:35;;;;;;;27.80;14.60;;;;;;;1.95;100.00;95125.38;10369527;28;20621;-58
2022/03/30 15:43:37;;;;;;;33.40;16.90;;;;;;;1.89;100.00;95123.38;10369657;28;20335;-55
2022/03/30 15:48:37;;;;;;;33.73;18.10;;;;;;;1.79;100.00;95125.97;10369395;28;20292;-54
2022/03/30 15:53:39;;;;;;;33.97;17.67;;;;;;;1.72;100.00;95118.00;10368651;28;20224;-54
2022/03/30 15:58:40;;;;;;;27.33;15.10;;;;;;;1.60;100.00;95119.13;10366372;28;20213;-56
2022/03/30 16:03:40;;;;;;;24.00;15.37;;;;;;;1.60;100.00;95117.34;10370296;28;20200;-55
2022/03/30 16:09:01;;;;;;;29.30;15.30;;;;;;;1.49;100.00;95114.13;10370049;28;20683;-54
2022/03/30 16:14:02;;;;;;;34.53;18.67;;;;;;;1.57;100.00;95116.81;10369727;28;20220;-54
2022/03/30 16:19:02;;;;;;;33.13;21.13;;;;;;;1.58;100.00;95114.09;10370183;28;20298;-55
2022/03/30 16:24:04;;;;;;;32.97;20.50;;;;;;;1.60;100.00;95113.97;10369814;28;20188;-55
2022/03/30 16:29:05;;;;;;;31.43;21.27;;;;;;;1.50;100.00;95115.75;10369929;28;20213;-55
2022/03/30 16:34:07;;;;;;;29.03;19.63;;;;;;;1.51;100.00;95109.66;10369819;28;20221;-54
2022/03/30 16:39:08;;;;;;;26.20;17.83;;;;;;;1.53;100.00;95115.47;10373488;28;20209;-55
2022/03/30 16:44:09;;;;;;;27.30;18.53;;;;;;;1.25;100.00;95115.41;10377870;28;20184;-55
2022/03/30 16:49:09;;;;;;;25.93;17.57;;;;;;;1.04;100.00;95128.44;10377304;28;20308;-54
2022/03/30 16:54:11;;;;;;;24.57;15.87;;;;;;;0.99;100.00;95128.06;10377260;28;20278;-55
2022/03/30 16:59:11;;;;;;;23.97;16.50;;;;;;;1.01;100.00;95132.13;10377088;28;20263;-53
2022/03/30 17:04:12;;;;;;;23.43;15.77;;;;;;;0.89;100.00;95128.88;10376898;28;20276;-55
2022/03/30 17:14:31;;;;;;;28.53;20.43;;;;;;;0.82;100.00;95132.13;10376538;28;20225;-55
2022/03/30 17:19:32;;;;;;;26.43;17.83;;;;;;;0.89;100.00;95130.66;10376245;28;20706;-54
2022/03/30 17:24:33;;;;;;;25.33;16.63;;;;;;;0.88;100.00;95139.31;10376283;28;20323;-54
2022/03/30 17:29:34;;;;;;;23.57;16.83;;;;;;;0.89;100.00;95135.81;10375717;28;20753;-55
2022/03/30 17:34:34;;;;;;;25.50;16.47;;;;;;;0.93;100.00;95134.56;10375430;28;20742;-55
2022/03/30 17:39:34;;;;;;;26.17;18.40;;;;;;;0.88;100.00;95136.75;10375201;28;20244;-54
2022/03/30 17:44:35;;;;;;;19.70;15.33;;;;;;;0.93;100.00;95128.59;10375058;28;20288;-54
2022/03/30 17:54:54;;;;;;;23.20;16.07;;;;;;;0.96;100.00;95134.28;10375012;28;20228;-54
2022/03/30 17:59:55;;;;;;;26.77;17.63;;;;;;;0.94;100.00;95131.03;10374393;28;20212;-54
2022/03/30 18:04:57;;;;;;;29.43;18.50;;;;;;;1.00;100.00;95133.06;10374508;28;20185;-54
2022/03/30 18:09:58;;;;;;;29.33;18.67;;;;;;;0.99;100.00;95134.00;10420927;22;20258;-59
2022/03/30 18:14:58;;;;;;;27.93;17.70;;;;;;;1.00;100.00;95143.38;10415019;28;20331;-55
2022/03/30 18:19:59;;;;;;;57.77;31.43;;;;;;;1.08;100.00;95134.16;10414699;28;20223;-56
2022/03/30 18:24:59;;;;;;;29.43;18.77;;;;;;;1.12;100.00;95140.66;10414341;28;20232;-57
2022/03/30 18:30:00;;;;;;;46.40;26.83;;;;;;;1.22;100.00;95128.56;10413653;28;20212;-59
2022/03/30 18:35:01;;;;;;;36.07;24.57;;;;;;;1.27;100.00;95126.38;10413436;28;20220;-59
2022/03/30 18:40:01;;;;;;;32.07;18.23;;;;;;;1.23;100.00;95133.59;10413296;28;20258;-58
2022/03/30 18:45:02;;;;;;;33.70;18.70;;;;;;;1.30;100.00;95128.69;10413119;28;20200;-59
2022/03/30 18:50:03;;;;;;;32.87;18.03;;;;;;;1.29;100.00;95133.97;10413135;28;20219;-58
2022/03/30 18:55:04;;;;;;;34.70;19.07;;;;;;;1.35;100.00;95133.47;10412995;28;20228;-59
2022/03/30 19:00:07;;;;;;;31.03;19.00;;;;;;;1.44;100.00;95127.47;10411442;28;20222;-59
2022/03/30 19:05:09;;;;;;;27.33;16.27;;;;;;;1.47;100.00;95126.34;10412480;28;20184;-60
2022/03/30 19:10:09;;;;;;;32.53;16.77;;;;;;;1.40;100.00;95126.91;10411450;28;20240;-59
2022/03/30 19:15:10;;;;;;;30.50;16.77;;;;;;;1.55;100.00;95129.88;10411941;28;20702;-59
2022/03/30 19:20:10;;;;;;;31.77;18.63;;;;;;;1.50;100.00;95131.22;10411506;28;20250;-57
2022/03/30 19:25:11;;;;;;;37.33;17.53;;;;;;;1.45;100.00;95134.22;10411620;28;20191;-54
2022/03/30 19:30:12;;;;;;;46.17;22.90;;;;;;;1.61;100.00;95141.41;10411629;28;20635;-59
2022/03/30 19:35:13;;;;;;;43.27;21.03;;;;;;;1.51;100.00;95138.03;10410936;28;20219;-57
2022/03/30 19:40:13;;;;;;;31.83;18.20;;;;;;;1.51;100.00;95141.41;10411220;28;20215;-59
2022/03/30 19:45:14;;;;;;;37.20;20.17;;;;;;;1.47;100.00;95136.66;10410750;28;20196;-59
2022/03/30 19:50:15;;;;;;;36.03;17.97;;;;;;;1.51;100.00;95140.59;10410618;28;20542;-59
2022/03/30 19:55:16;;;;;;;39.67;19.33;;;;;;;1.55;100.00;95135.03;10410102;28;20227;-56
2022/03/30 20:00:17;;;;;;;38.73;21.10;;;;;;;1.58;100.00;95134.75;10408440;28;20306;-59
2022/03/30 20:05:18;;;;;;;38.07;22.00;;;;;;;1.58;100.00;95123.63;10410147;28;20192;-56
2022/03/30 20:10:18;;;;;;;41.80;22.23;;;;;;;1.61;100.00;95125.91;10409417;28;20236;-55
2022/03/30 20:15:24;;;;;;;39.73;21.43;;;;;;;1.67;100.00;95127.94;10408980;28;20215;-56
2022/03/30 20:20:24;;;;;;;46.60;20.30;;;;;;;1.55;100.00;95124.72;10409964;28;20781;-59
2022/03/30 20:25:25;;;;;;;35.40;19.97;;;;;;;1.56;100.00;95123.75;10409954;28;20203;-53
2022/03/30 20:30:26;;;;;;;36.23;20.00;;;;;;;1.63;100.00;95128.38;10410035;28;20243;-58
2022/03/30 20:35:27;;;;;;;38.27;21.17;;;;;;;1.67;100.00;95130.53;10409766;28;20238;-55
2022/03/30 20:40:27;;;;;;;39.23;21.63;;;;;;;1.70;100.00;95117.34;10410041;28;20718;-56
2022/03/30 20:45:28;;;;;;;36.47;20.63;;;;;;;1.67;100.00;95120.19;10409676;28;20204;-58
2022/03/30 20:50:29;;;;;;;34.27;20.63;;;;;;;1.60;100.00;95119.13;10409735;28;20216;-54
2022/03/30 20:55:29;;;;;;;35.97;20.37;;;;;;;1.53;100.00;95116.31;10409714;28;20289;-54
2022/03/30 21:00:29;;;;;;;36.13;20.03;;;;;;;1.55;100.00;95132.44;10409000;28;20295;-56
2022/03/30 21:05:30;;;;;;;31.93;19.97;;;;;;;1.59;100.00;95120.06;10409475;28;20202;-57
2022/03/30 21:10:30;;;;;;;34.53;19.07;;;;;;;1.62;100.00;95124.13;10408307;28;20252;-54
2022/03/30 21:15:30;;;;;;;28.47;17.33;;;;;;;1.61;100.00;95118.19;10409301;28;20236;-56
2022/03/30 21:20:31;;;;;;;30.90;17.03;;;;;;;1.57;100.00;95127.94;10409277;28;20235;-59
2022/03/30 21:25:31;;;;;;;28.93;18.10;;;;;;;1.53;100.00;95124.03;10413592;28;20195;-57
2022/03/30 21:30:33;;;;;;;31.37;17.17;;;;;;;1.57;100.00;95120.22;10416957;28;20213;-60
2022/03/30 21:35:34;;;;;;;28.73;15.70;;;;;;;1.53;100.00;95118.88;10416504;28;20250;-61
2022/03/30 21:40:34;;;;;;;27.00;15.10;;;;;;;1.48;100.00;95117.66;10416622;28;20315;-55
2022/03/30 21:45:35;;;;;;;22.27;13.37;;;;;;;1.47;100.00;95119.44;10416306;28;20184;-59
2022/03/30 21:50:35;;;;;;;21.07;12.40;;;;;;;1.51;100.00;95112.22;10416106;28;20212;-58
2022/03/30 21:55:35;;;;;;;19.53;12.13;;;;;;;1.54;100.00;95112.75;10416049;28;20231;-59
2022/03/30 22:00:40;;;;;;;17.03;11.63;;;;;;;1.56;100.00;95116.03;10415349;28;20200;-59
2022/03/30 22:05:40;;;;;;;20.97;12.00;;;;;;;1.50;100.00;95110.59;10415620;28;20189;-60
2022/03/30 22:10:46;;;;;;;17.80;11.47;;;;;;;1.57;100.00;95101.34;10413881;28;20236;-60
2022/03/30 22:15:46;;;;;;;19.40;11.13;;;;;;;1.55;100.00;95095.50;10414597;28;20271;-60
2022/03/30 22:20:48;;;;;;;20.30;11.97;;;;;;;1.53;100.00;95095.66;10414597;28;20617;-60
2022/03/30 22:25:49;;;;;;;16.57;11.30;;;;;;;1.54;100.00;95092.09;10414194;28;20192;-57
2022/03/30 22:30:49;;;;;;;24.47;13.60;;;;;;;1.55;100.00;95092.94;10414307;28;20220;-55
2022/03/30 22:35:50;;;;;;;20.87;13.07;;;;;;;1.49;100.00;95088.34;10412689;28;20216;-57
2022/03/30 22:40:54;;;;;;;17.30;11.73;;;;;;;1.53;100.00;95087.06;10413774;28;20212;-55
2022/03/30 22:45:56;;;;;;;21.13;13.13;;;;;;;1.48;100.00;95086.69;10413654;28;20723;-53
2022/03/30 22:50:56;;;;;;;21.67;13.13;;;;;;;1.58;100.00;95082.31;10412933;28;20621;-56
2022/03/30 22:55:57;;;;;;;23.80;13.83;;;;;;;1.61;100.00;95089.78;10413339;28;20246;-53
2022/03/30 23:00:57;;;;;;;21.43;13.67;;;;;;;1.55;100.00;95087.78;10412617;28;20311;-53
2022/03/30 23:11:16;;;;;;;19.10;12.27;;;;;;;1.54;100.00;95086.13;10411801;28;20239;-53
2022/03/30 23:16:16;;;;;;;20.70;12.90;;;;;;;1.51;100.00;95094.16;10412182;28;20223;-60